Time;durP1;ratioP1;P1;durP2;ratioP2;P2;SDS_P1;SDS_P2;PMS_P1;PMS_P2;Temp;Humidity;BMP_temperature;BMP_pressure;BME280_temperature;BME280_humidity;BME280_pressure;Samples;Min_cycle;Max_cycle;Signal;HPM_P1;HPM_P2
2021/10/04 00:01:46;;;;;;;4.15;1.30;;;16.00;99.90;;;;;;5071267;28;20404;-55
2021/10/04 00:04:12;;;;;;;4.80;1.10;;;15.90;99.90;;;;;;5071306;28;20491;-57
2021/10/04 00:06:37;;;;;;;4.00;1.10;;;15.80;99.90;;;;;;5070678;28;20386;-55
2021/10/04 00:09:03;;;;;;;4.25;0.98;;;15.60;99.90;;;;;;5071210;28;20394;-55
2021/10/04 00:11:29;;;;;;;4.70;1.00;;;15.50;99.90;;;;;;5070286;28;20390;-55
2021/10/04 00:13:55;;;;;;;4.30;1.13;;;15.50;99.90;;;;;;5071420;28;20372;-56
2021/10/04 00:16:20;;;;;;;4.10;1.00;;;15.50;99.90;;;;;;5070472;28;20456;-56
2021/10/04 00:18:46;;;;;;;4.47;1.20;;;15.50;99.90;;;;;;5071115;28;20517;-56
2021/10/04 00:21:12;;;;;;;4.70;1.33;;;15.50;99.90;;;;;;5071469;28;20407;-56
2021/10/04 00:23:38;;;;;;;4.10;0.90;;;15.30;99.90;;;;;;5070205;28;20417;-56
2021/10/04 00:26:05;;;;;;;4.40;1.10;;;15.20;99.90;;;;;;5070940;28;20396;-56
2021/10/04 00:28:32;;;;;;;4.05;1.08;;;15.10;99.90;;;;;;5070615;28;20396;-56
2021/10/04 00:30:58;;;;;;;4.07;1.10;;;15.00;99.90;;;;;;5070559;28;20467;-56
2021/10/04 00:33:23;;;;;;;3.90;0.97;;;15.00;99.90;;;;;;5070055;28;20470;-56
2021/10/04 00:35:49;;;;;;;4.60;1.10;;;14.90;99.90;;;;;;5070965;28;20403;-56
2021/10/04 00:38:15;;;;;;;3.90;1.00;;;14.90;99.90;;;;;;5070309;28;20861;-56
2021/10/04 00:40:40;;;;;;;4.53;1.10;;;14.80;99.90;;;;;;5070032;28;20454;-56
2021/10/04 00:43:06;;;;;;;4.70;1.20;;;14.90;99.90;;;;;;5069393;28;20413;-56
2021/10/04 00:45:32;;;;;;;4.25;1.30;;;14.80;99.90;;;;;;5069825;28;20454;-56
2021/10/04 00:47:59;;;;;;;4.00;1.20;;;14.90;99.90;;;;;;5070537;28;20383;-56
2021/10/04 00:50:25;;;;;;;3.97;1.10;;;14.80;99.90;;;;;;5069987;28;20372;-56
2021/10/04 00:52:52;;;;;;;4.65;1.00;;;14.70;99.90;;;;;;5070097;28;20379;-56
2021/10/04 00:55:19;;;;;;;4.50;1.25;;;14.60;99.90;;;;;;5070051;28;20425;-57
2021/10/04 00:57:44;;;;;;;4.10;1.20;;;14.50;99.90;;;;;;5070630;28;20454;-55
2021/10/04 01:00:18;;;;;;;4.00;1.10;;;14.50;99.90;;;;;;5070399;28;20804;-56
2021/10/04 01:02:43;;;;;;;4.13;1.00;;;14.40;99.90;;;;;;5070010;28;20406;-55
2021/10/04 01:05:10;;;;;;;3.92;1.00;;;14.40;99.90;;;;;;5070381;28;20380;-54
2021/10/04 01:07:36;;;;;;;4.00;0.90;;;14.30;99.90;;;;;;5069359;28;21188;-54
2021/10/04 01:10:03;;;;;;;3.83;1.13;;;14.20;99.90;;;;;;5070456;28;20419;-54
2021/10/04 01:12:29;;;;;;;4.60;1.05;;;14.30;99.90;;;;;;5069091;28;20926;-54
2021/10/04 01:14:54;;;;;;;4.00;1.00;;;14.30;99.90;;;;;;5069539;28;20372;-54
2021/10/04 01:17:20;;;;;;;4.07;1.00;;;14.40;99.90;;;;;;5069190;28;20461;-55
2021/10/04 01:19:46;;;;;;;5.15;1.23;;;14.40;99.90;;;;;;5069969;28;20388;-54
2021/10/04 01:22:12;;;;;;;4.20;1.30;;;14.20;99.90;;;;;;5069445;28;20474;-54
2021/10/04 01:24:38;;;;;;;4.40;1.30;;;14.20;99.90;;;;;;5069116;28;20380;-54
2021/10/04 01:27:04;;;;;;;4.30;1.10;;;14.30;99.90;;;;;;5069641;28;20809;-56
2021/10/04 01:29:31;;;;;;;3.85;1.10;;;14.30;99.90;;;;;;5068995;28;20479;-54
2021/10/04 01:31:57;;;;;;;4.45;1.17;;;14.20;99.90;;;;;;5069508;28;20376;-54
2021/10/04 01:34:22;;;;;;;4.60;1.43;;;14.20;99.90;;;;;;5068778;28;20805;-55
2021/10/04 01:36:48;;;;;;;4.25;1.00;;;15.20;99.90;;;;;;5069154;28;20769;-55
2021/10/04 01:39:14;;;;;;;4.40;1.40;;;13.20;99.90;;;;;;5069346;28;20810;-55
2021/10/04 01:41:40;;;;;;;4.60;1.50;;;14.10;99.90;;;;;;5068935;28;20379;-55
2021/10/04 01:44:05;;;;;;;4.00;1.30;;;14.10;99.90;;;;;;5069362;28;20384;-55
2021/10/04 01:46:31;;;;;;;6.80;2.05;;;14.00;99.90;;;;;;5068711;28;20372;-55
2021/10/04 01:48:57;;;;;;;4.70;1.63;;;13.90;99.90;;;;;;5069611;28;20399;-55
2021/10/04 01:51:22;;;;;;;5.17;2.00;;;13.90;99.90;;;;;;5068624;28;20475;-55
2021/10/04 01:53:48;;;;;;;5.18;1.80;;;13.80;99.90;;;;;;5068949;28;20475;-55
2021/10/04 01:56:14;;;;;;;6.57;2.00;;;13.80;99.90;;;;;;5069430;28;20487;-55
2021/10/04 01:58:39;;;;;;;5.00;1.40;;;13.90;99.90;;;;;;5068954;28;20528;-55
2021/10/04 02:01:07;;;;;;;4.93;1.70;;;13.90;99.90;;;;;;5069081;28;20380;-55
2021/10/04 02:03:32;;;;;;;5.40;2.00;;;13.80;99.90;;;;;;5068002;28;20426;-55
2021/10/04 02:05:58;;;;;;;5.50;2.05;;;13.80;99.90;;;;;;5068687;28;20891;-55
2021/10/04 02:08:24;;;;;;;5.30;2.38;;;13.80;99.90;;;;;;5068479;28;20845;-55
2021/10/04 02:10:51;;;;;;;4.60;1.90;;;13.80;99.90;;;;;;5069266;28;20462;-55
2021/10/04 02:13:17;;;;;;;6.43;2.58;;;13.90;99.90;;;;;;5069111;28;20865;-55
2021/10/04 02:15:43;;;;;;;5.75;2.20;;;13.80;99.90;;;;;;5068656;28;20457;-56
2021/10/04 02:18:10;;;;;;;4.78;2.10;;;13.80;99.90;;;;;;5069595;28;20474;-55
2021/10/04 02:20:40;;;;;;;5.15;2.20;;;13.80;99.90;;;;;;5068417;28;20730;-55
2021/10/04 02:23:07;;;;;;;5.25;2.40;;;13.70;99.90;;;;;;5068943;28;20423;-55
2021/10/04 02:25:39;;;;;;;6.03;3.07;;;13.60;99.90;;;;;;5071038;28;20395;-55
2021/10/04 02:28:07;;;;;;;6.00;2.50;;;13.70;99.90;;;;;;5073351;28;20441;-55
2021/10/04 02:30:32;;;;;;;5.40;2.20;;;13.70;99.90;;;;;;5072712;28;20375;-55
2021/10/04 02:32:58;;;;;;;5.90;2.28;;;13.70;99.90;;;;;;5073302;28;20421;-54
2021/10/04 02:35:24;;;;;;;5.53;2.30;;;13.80;99.90;;;;;;5072373;28;20383;-55
2021/10/04 02:37:51;;;;;;;5.10;2.28;;;13.80;99.90;;;;;;5073251;28;20402;-55
2021/10/04 02:40:18;;;;;;;4.85;2.30;;;13.70;99.90;;;;;;5073257;28;20455;-55
2021/10/04 02:42:44;;;;;;;6.35;2.50;;;13.70;99.90;;;;;;5072173;28;20482;-55
2021/10/04 02:45:12;;;;;;;5.68;2.40;;;13.80;99.90;;;;;;5073354;28;20376;-55
2021/10/04 02:47:38;;;;;;;5.18;2.45;;;13.90;99.90;;;;;;5072172;28;20994;-55
2021/10/04 02:50:07;;;;;;;5.32;2.30;;;14.00;99.90;;;;;;5073135;28;20482;-55
2021/10/04 02:52:32;;;;;;;6.13;2.47;;;13.90;99.90;;;;;;5071964;28;20449;-55
2021/10/04 02:54:58;;;;;;;5.50;2.30;;;14.00;99.90;;;;;;5072904;28;20388;-55
2021/10/04 02:57:24;;;;;;;5.70;2.40;;;14.00;99.90;;;;;;5069845;28;20403;-55
2021/10/04 02:59:50;;;;;;;6.47;2.70;;;14.00;99.90;;;;;;5072455;28;20475;-55
2021/10/04 03:02:15;;;;;;;5.50;2.33;;;14.00;99.90;;;;;;5071735;28;20426;-55
2021/10/04 03:04:41;;;;;;;5.80;2.35;;;14.00;99.90;;;;;;5072127;28;20908;-55
2021/10/04 03:07:06;;;;;;;6.27;2.53;;;14.00;99.90;;;;;;5072228;28;20380;-55
2021/10/04 03:09:32;;;;;;;4.97;2.28;;;14.00;99.90;;;;;;5092157;28;20863;-55
2021/10/04 03:11:58;;;;;;;5.97;2.58;;;14.20;99.90;;;;;;5093283;28;20705;-55
2021/10/04 03:14:24;;;;;;;5.40;2.30;;;14.20;99.90;;;;;;5090807;28;20721;-55
2021/10/04 03:16:50;;;;;;;7.28;2.90;;;14.20;99.90;;;;;;5092037;28;20474;-55
2021/10/04 03:19:15;;;;;;;7.20;2.30;;;14.10;99.90;;;;;;5092788;28;20414;-54
2021/10/04 03:21:44;;;;;;;5.53;2.53;;;14.10;99.90;;;;;;5091873;28;20378;-55
2021/10/04 03:24:10;;;;;;;5.80;2.53;;;14.10;99.90;;;;;;5092721;28;20382;-54
2021/10/04 03:26:36;;;;;;;5.63;2.78;;;14.10;99.90;;;;;;5091853;28;20389;-55
2021/10/04 03:29:03;;;;;;;5.70;2.83;;;14.20;99.90;;;;;;5092421;28;20385;-55
2021/10/04 03:31:28;;;;;;;6.10;2.60;;;14.10;99.90;;;;;;5091581;28;20394;-54
2021/10/04 03:33:54;;;;;;;6.00;2.70;;;14.00;99.90;;;;;;5092394;28;20381;-54
2021/10/04 03:36:20;;;;;;;6.60;2.90;;;14.10;99.90;;;;;;5091543;28;20380;-55
2021/10/04 03:38:45;;;;;;;6.10;3.30;;;14.10;99.90;;;;;;5091729;28;20386;-56
2021/10/04 03:41:11;;;;;;;7.40;2.97;;;14.10;99.90;;;;;;5091926;28;20494;-55
2021/10/04 03:43:36;;;;;;;6.10;2.90;;;14.20;99.90;;;;;;5091194;28;20409;-55
2021/10/04 03:46:03;;;;;;;6.10;3.20;;;14.20;99.90;;;;;;5092122;28;20382;-55
2021/10/04 03:48:29;;;;;;;7.65;4.00;;;14.20;99.90;;;;;;5091359;28;20474;-55
2021/10/04 03:50:54;;;;;;;5.65;2.80;;;14.30;99.90;;;;;;5091756;28;20473;-55
2021/10/04 03:53:20;;;;;;;6.60;2.90;;;14.20;99.90;;;;;;5091914;28;20386;-56
2021/10/04 03:55:46;;;;;;;5.95;2.92;;;14.20;99.90;;;;;;5091438;28;20394;-54
2021/10/04 03:58:12;;;;;;;6.70;3.03;;;14.20;99.90;;;;;;5091502;28;20474;-55
2021/10/04 04:00:37;;;;;;;7.30;3.40;;;14.20;99.90;;;;;;5089482;28;20386;-55
2021/10/04 04:03:04;;;;;;;5.80;2.80;;;14.20;99.90;;;;;;5091559;28;20560;-55
2021/10/04 04:05:30;;;;;;;8.25;3.03;;;14.10;99.90;;;;;;5090524;28;20550;-54
2021/10/04 04:07:56;;;;;;;6.20;3.20;;;14.20;99.90;;;;;;5088438;28;20439;-54
2021/10/04 04:10:22;;;;;;;6.72;3.17;;;14.10;99.90;;;;;;5091274;28;20386;-57
2021/10/04 04:12:47;;;;;;;6.40;3.30;;;14.10;99.90;;;;;;5091141;28;20390;-56
2021/10/04 04:15:14;;;;;;;5.50;2.83;;;14.10;99.90;;;;;;5091557;28;20374;-56
2021/10/04 04:17:40;;;;;;;7.05;3.25;;;14.10;99.90;;;;;;5090541;28;20490;-56
2021/10/04 04:20:07;;;;;;;6.00;2.80;;;14.10;99.90;;;;;;5090995;28;20763;-56
2021/10/04 04:22:33;;;;;;;5.63;2.60;;;14.20;99.90;;;;;;5088757;28;20416;-56
2021/10/04 04:24:58;;;;;;;7.50;2.90;;;14.20;99.90;;;;;;5088566;28;20386;-56
2021/10/04 04:27:25;;;;;;;7.10;3.30;;;14.10;99.90;;;;;;5090482;28;21049;-57
2021/10/04 04:29:51;;;;;;;8.18;4.20;;;14.10;99.90;;;;;;5091110;28;20386;-55
2021/10/04 04:32:17;;;;;;;6.32;3.17;;;14.10;99.90;;;;;;5087381;28;20390;-55
2021/10/04 04:34:42;;;;;;;5.20;2.50;;;14.00;99.90;;;;;;5087349;28;20613;-56
2021/10/04 04:37:08;;;;;;;6.63;2.83;;;13.90;99.90;;;;;;5091332;28;20382;-55
2021/10/04 04:39:35;;;;;;;6.50;2.70;;;14.00;99.90;;;;;;5090068;28;20414;-55
2021/10/04 04:42:03;;;;;;;5.37;2.30;;;14.00;99.90;;;;;;5089405;28;20830;-56
2021/10/04 04:44:30;;;;;;;6.72;2.20;;;14.00;99.90;;;;;;5090515;28;20394;-56
2021/10/04 04:46:56;;;;;;;6.20;2.50;;;14.00;99.90;;;;;;5082432;28;20382;-55
2021/10/04 04:49:26;;;;;;;5.43;2.30;;;14.00;99.90;;;;;;5075408;28;20386;-57
2021/10/04 04:51:53;;;;;;;5.80;2.17;;;14.00;99.90;;;;;;5084803;28;20426;-56
2021/10/04 04:54:19;;;;;;;5.20;2.20;;;14.00;99.90;;;;;;5087683;28;20401;-55
2021/10/04 04:56:45;;;;;;;5.40;2.00;;;14.10;99.90;;;;;;5092032;28;21136;-56
2021/10/04 04:59:11;;;;;;;6.53;2.55;;;14.10;99.90;;;;;;5103068;28;20392;-55
2021/10/04 05:01:37;;;;;;;6.00;2.30;;;14.10;99.90;;;;;;5096000;28;20389;-56
2021/10/04 05:04:02;;;;;;;5.20;2.50;;;14.10;99.90;;;;;;5104972;28;20396;-55
2021/10/04 05:06:28;;;;;;;5.90;2.50;;;14.10;99.90;;;;;;5074609;28;20388;-56
2021/10/04 05:08:54;;;;;;;5.60;2.47;;;14.00;99.90;;;;;;5101516;28;20466;-56
2021/10/04 05:11:19;;;;;;;6.70;2.50;;;14.00;99.90;;;;;;5109549;28;20520;-55
2021/10/04 05:13:45;;;;;;;6.27;2.80;;;14.00;99.90;;;;;;5103216;28;20857;-55
2021/10/04 05:16:12;;;;;;;5.30;2.60;;;13.90;99.90;;;;;;5094621;28;20724;-55
2021/10/04 05:18:38;;;;;;;5.70;2.50;;;13.80;99.90;;;;;;5105980;28;20386;-56
2021/10/04 05:21:04;;;;;;;5.00;2.10;;;13.90;99.90;;;;;;5096872;28;20399;-55
2021/10/04 05:23:30;;;;;;;6.53;2.30;;;13.90;99.90;;;;;;5094395;28;20678;-55
2021/10/04 05:25:56;;;;;;;7.78;3.00;;;13.90;99.90;;;;;;5090869;28;20883;-56
2021/10/04 05:28:22;;;;;;;6.60;2.42;;;13.90;99.90;;;;;;5097560;28;20529;-56
2021/10/04 05:30:47;;;;;;;6.00;2.70;;;13.90;99.90;;;;;;5083938;28;20439;-55
2021/10/04 05:33:13;;;;;;;6.88;2.50;;;13.80;99.90;;;;;;5092257;28;20867;-56
2021/10/04 05:35:39;;;;;;;5.57;2.60;;;13.80;99.90;;;;;;5091564;28;20758;-56
2021/10/04 05:38:05;;;;;;;5.70;2.60;;;13.90;99.90;;;;;;5104831;28;20392;-56
2021/10/04 05:40:31;;;;;;;6.87;3.03;;;13.90;99.90;;;;;;5092749;28;20468;-56
2021/10/04 05:42:56;;;;;;;6.20;3.30;;;13.90;99.90;;;;;;5091758;28;20463;-55
2021/10/04 05:45:22;;;;;;;7.67;3.47;;;13.90;99.90;;;;;;5089441;28;20415;-57
2021/10/04 05:47:48;;;;;;;8.68;4.60;;;14.00;99.90;;;;;;5085231;28;20725;-56
2021/10/04 05:50:14;;;;;;;11.00;5.45;;;13.90;99.90;;;;;;5084490;28;20397;-55
2021/10/04 05:52:41;;;;;;;10.03;5.20;;;13.80;99.90;;;;;;5088926;28;20397;-55
2021/10/04 05:55:08;;;;;;;9.55;5.07;;;13.80;99.90;;;;;;5088906;28;20848;-55
2021/10/04 05:57:34;;;;;;;8.07;3.90;;;13.70;99.90;;;;;;5088760;28;20406;-55
2021/10/04 06:00:00;;;;;;;8.27;3.70;;;13.60;99.90;;;;;;5088955;28;20382;-55
2021/10/04 06:02:25;;;;;;;6.68;3.13;;;13.60;99.90;;;;;;5088728;28;20733;-57
2021/10/04 06:04:51;;;;;;;6.17;2.60;;;13.60;99.90;;;;;;5089132;28;20384;-55
2021/10/04 06:07:17;;;;;;;7.38;3.30;;;13.60;99.90;;;;;;5089036;28;20385;-56
2021/10/04 06:09:43;;;;;;;6.72;2.85;;;13.60;99.90;;;;;;5088734;28;21080;-55
2021/10/04 06:12:09;;;;;;;6.38;3.00;;;13.70;99.90;;;;;;5089174;28;20409;-55
2021/10/04 06:14:34;;;;;;;7.50;3.33;;;13.70;99.90;;;;;;5088732;28;20404;-55
2021/10/04 06:17:00;;;;;;;7.43;3.70;;;13.80;99.90;;;;;;5089541;28;20507;-56
2021/10/04 06:19:27;;;;;;;8.43;3.80;;;13.80;99.90;;;;;;5088210;28;20420;-56
2021/10/04 06:21:53;;;;;;;7.05;3.55;;;13.70;99.90;;;;;;5089004;28;20382;-55
2021/10/04 06:24:19;;;;;;;6.93;3.77;;;13.70;99.90;;;;;;5089260;28;21004;-55
2021/10/04 06:26:44;;;;;;;6.47;3.40;;;13.60;99.90;;;;;;5088062;28;20908;-55
2021/10/04 06:29:11;;;;;;;7.00;4.27;;;13.70;99.90;;;;;;5087884;28;20390;-55
2021/10/04 06:31:36;;;;;;;8.47;4.67;;;13.80;99.90;;;;;;5088523;28;20442;-55
2021/10/04 06:34:02;;;;;;;8.63;4.85;;;13.80;99.90;;;;;;5088707;28;20386;-56
2021/10/04 06:36:28;;;;;;;7.50;4.03;;;13.90;99.90;;;;;;5088189;28;20374;-55
2021/10/04 06:38:54;;;;;;;9.02;4.93;;;13.80;99.90;;;;;;5089363;28;20409;-55
2021/10/04 06:41:19;;;;;;;10.60;5.07;;;13.80;99.90;;;;;;5089258;28;20457;-55
2021/10/04 06:43:45;;;;;;;8.73;5.10;;;13.90;99.90;;;;;;5088487;28;20882;-55
2021/10/04 06:46:11;;;;;;;9.15;5.25;;;14.00;99.90;;;;;;5089430;28;20390;-55
2021/10/04 06:48:38;;;;;;;9.75;5.05;;;13.90;99.90;;;;;;5088558;28;20404;-55
2021/10/04 06:51:04;;;;;;;8.45;4.82;;;13.90;99.90;;;;;;5088984;28;20414;-56
2021/10/04 06:53:29;;;;;;;9.50;5.40;;;13.80;99.90;;;;;;5088814;28;20390;-55
2021/10/04 06:55:55;;;;;;;9.25;4.63;;;13.90;99.90;;;;;;5088895;28;20401;-55
2021/10/04 06:58:21;;;;;;;8.80;5.27;;;14.10;99.90;;;;;;5089114;28;20438;-55
2021/10/04 07:00:47;;;;;;;7.43;4.33;;;14.10;99.90;;;;;;5088011;28;20374;-55
2021/10/04 07:03:13;;;;;;;7.95;4.78;;;14.10;99.90;;;;;;5089439;28;20745;-55
2021/10/04 07:05:39;;;;;;;9.40;5.40;;;14.10;99.90;;;;;;5088385;28;20819;-55
2021/10/04 07:08:05;;;;;;;8.02;4.45;;;14.00;99.90;;;;;;5089082;28;20401;-55
2021/10/04 07:10:31;;;;;;;14.30;5.70;;;14.10;99.90;;;;;;5088452;28;20386;-55
2021/10/04 07:12:57;;;;;;;9.30;4.90;;;14.10;99.90;;;;;;5091683;28;20381;-55
2021/10/04 07:15:22;;;;;;;7.32;4.90;;;14.20;99.90;;;;;;5092835;28;20922;-57
2021/10/04 07:17:48;;;;;;;7.40;4.18;;;14.10;99.90;;;;;;5091631;28;20922;-56
2021/10/04 07:20:14;;;;;;;7.10;3.20;;;14.00;99.90;;;;;;5093023;28;20743;-55
2021/10/04 07:22:40;;;;;;;8.48;3.20;;;14.00;99.90;;;;;;5091733;28;20870;-55
2021/10/04 07:25:08;;;;;;;6.70;3.20;;;13.90;99.90;;;;;;5092465;28;20815;-55
2021/10/04 07:27:33;;;;;;;5.90;2.78;;;13.80;99.90;;;;;;5091749;28;20484;-53
2021/10/04 07:30:01;;;;;;;5.85;2.50;;;13.70;99.90;;;;;;5091128;28;20414;-56
2021/10/04 07:32:26;;;;;;;6.00;2.63;;;13.70;99.90;;;;;;5090845;28;20479;-57
2021/10/04 07:34:52;;;;;;;8.75;3.33;;;13.70;99.90;;;;;;5092084;28;20851;-56
2021/10/04 07:37:18;;;;;;;5.70;2.50;;;13.70;99.90;;;;;;5092014;28;20390;-56
2021/10/04 07:39:43;;;;;;;5.55;2.20;;;13.70;99.90;;;;;;5091047;28;20374;-56
2021/10/04 07:42:09;;;;;;;5.60;2.57;;;13.80;99.90;;;;;;5092171;28;20874;-56
2021/10/04 07:44:35;;;;;;;4.80;2.20;;;14.00;99.90;;;;;;5090383;28;20429;-56
2021/10/04 07:47:02;;;;;;;5.20;2.43;;;14.10;99.90;;;;;;5090672;28;20737;-55
2021/10/04 07:49:29;;;;;;;5.77;2.37;;;13.90;99.90;;;;;;5091141;28;20860;-57
2021/10/04 07:51:57;;;;;;;6.90;2.10;;;13.80;99.90;;;;;;5091548;28;20848;-54
2021/10/04 07:54:22;;;;;;;6.50;2.30;;;13.70;99.90;;;;;;5091983;28;20401;-55
2021/10/04 07:56:48;;;;;;;5.17;2.10;;;13.80;99.90;;;;;;5090550;28;20410;-56
2021/10/04 07:59:14;;;;;;;5.43;2.50;;;13.80;99.90;;;;;;5092103;28;20379;-56
2021/10/04 08:01:39;;;;;;;5.53;2.13;;;13.80;99.90;;;;;;5090857;28;20693;-56
2021/10/04 08:04:05;;;;;;;5.30;2.57;;;13.90;99.90;;;;;;5091355;28;20413;-54
2021/10/04 08:06:31;;;;;;;4.90;2.22;;;13.80;99.90;;;;;;5090313;28;20390;-56
2021/10/04 08:08:57;;;;;;;5.20;2.27;;;13.80;99.90;;;;;;5091620;28;20431;-56
2021/10/04 08:11:23;;;;;;;5.60;2.58;;;13.80;99.90;;;;;;5090044;28;20389;-56
2021/10/04 08:13:50;;;;;;;5.13;2.03;;;13.90;99.90;;;;;;5090604;28;20392;-56
2021/10/04 08:16:23;;;;;;;5.10;2.10;;;13.90;99.90;;;;;;5091028;28;20858;-56
2021/10/04 08:18:50;;;;;;;6.00;2.20;;;13.90;99.90;;;;;;5091057;28;20393;-56
2021/10/04 08:21:17;;;;;;;5.35;2.00;;;13.90;99.90;;;;;;5090992;28;20417;-56
2021/10/04 08:23:46;;;;;;;5.50;1.80;;;13.80;99.90;;;;;;5090132;28;20401;-56
2021/10/04 08:26:13;;;;;;;4.93;1.80;;;13.90;99.90;;;;;;5091016;28;20397;-56
2021/10/04 08:28:38;;;;;;;5.10;2.00;;;13.80;99.90;;;;;;5090587;28;20855;-56
2021/10/04 08:31:05;;;;;;;7.30;2.00;;;13.70;99.90;;;;;;5089534;28;20461;-53
2021/10/04 08:33:31;;;;;;;5.05;1.60;;;13.60;99.90;;;;;;5088858;28;20747;-54
2021/10/04 08:35:58;;;;;;;4.53;1.70;;;13.60;99.90;;;;;;5090968;28;20860;-53
2021/10/04 08:38:25;;;;;;;5.00;1.57;;;13.60;99.90;;;;;;5090429;28;20435;-53
2021/10/04 08:40:52;;;;;;;5.10;1.60;;;13.60;99.90;;;;;;5091014;28;20439;-56
2021/10/04 08:43:17;;;;;;;4.53;1.50;;;13.60;99.90;;;;;;5090503;28;20448;-56
2021/10/04 08:45:44;;;;;;;4.70;1.70;;;13.70;99.90;;;;;;5090102;28;20409;-56
2021/10/04 08:48:11;;;;;;;4.77;1.60;;;14.00;99.90;;;;;;5090965;28;20378;-56
2021/10/04 08:50:37;;;;;;;3.90;1.42;;;14.00;99.90;;;;;;5089707;28;20764;-57
2021/10/04 08:53:03;;;;;;;5.25;2.13;;;13.90;99.90;;;;;;5090247;28;20436;-53
2021/10/04 08:55:30;;;;;;;4.53;1.80;;;13.70;99.90;;;;;;5088334;28;20437;-54
2021/10/04 08:57:56;;;;;;;4.50;1.70;;;13.70;99.90;;;;;;5090607;28;20413;-55
2021/10/04 09:00:22;;;;;;;5.90;2.10;;;13.70;99.90;;;;;;5090043;28;20385;-55
2021/10/04 09:02:48;;;;;;;4.80;1.80;;;13.70;99.90;;;;;;5089979;28;20938;-55
2021/10/04 09:05:25;;;;;;;4.72;1.77;;;13.80;99.90;;;;;;5089039;28;20901;-58
2021/10/04 09:07:56;;;;;;;5.22;1.88;;;13.70;99.90;;;;;;5089732;28;20497;-56
2021/10/04 09:10:27;;;;;;;4.95;1.80;;;13.90;99.90;;;;;;5090411;28;20386;-56
2021/10/04 09:12:56;;;;;;;4.32;1.60;;;14.00;99.90;;;;;;5089918;28;20382;-56
2021/10/04 09:15:29;;;;;;;5.20;1.90;;;14.30;99.90;;;;;;5089292;28;20789;-56
2021/10/04 09:17:56;;;;;;;4.47;1.60;;;14.40;99.90;;;;;;5089206;28;20484;-56
2021/10/04 09:20:21;;;;;;;4.82;1.42;;;14.50;99.90;;;;;;5090201;28;20421;-56
2021/10/04 09:22:47;;;;;;;5.00;1.50;;;14.50;99.90;;;;;;5089095;28;20524;-56
2021/10/04 09:25:13;;;;;;;5.50;1.60;;;14.70;99.90;;;;;;5089720;28;20386;-56
2021/10/04 09:27:44;;;;;;;6.13;1.80;;;14.60;99.90;;;;;;5089470;28;20494;-57
2021/10/04 09:30:22;;;;;;;5.20;1.80;;;14.60;99.90;;;;;;5089904;28;20404;-56
2021/10/04 09:32:50;;;;;;;5.60;1.70;;;14.50;99.90;;;;;;5087707;28;21068;-56
2021/10/04 09:35:24;;;;;;;4.40;1.77;;;14.50;99.90;;;;;;5089721;28;20466;-56
2021/10/04 09:37:58;;;;;;;4.70;1.70;;;14.70;99.90;;;;;;5088755;28;20381;-56
2021/10/04 09:40:46;;;;;;;4.25;1.60;;;14.90;99.90;;;;;;5088681;28;20406;-56
2021/10/04 09:43:30;;;;;;;4.03;1.40;;;14.90;99.90;;;;;;5089768;28;20416;-57
2021/10/04 09:46:04;;;;;;;4.50;1.63;;;14.90;99.90;;;;;;5089851;28;20390;-56
2021/10/04 09:48:31;;;;;;;4.80;1.60;;;14.80;99.90;;;;;;5087872;28;20381;-56
2021/10/04 09:50:57;;;;;;;5.10;1.75;;;14.80;99.90;;;;;;5089801;28;20378;-56
2021/10/04 09:53:22;;;;;;;4.80;1.63;;;15.00;99.90;;;;;;5089271;28;20389;-56
2021/10/04 09:55:49;;;;;;;4.20;1.30;;;15.30;99.90;;;;;;5088643;28;20382;-56
2021/10/04 09:58:18;;;;;;;4.10;1.50;;;15.30;99.90;;;;;;5089792;28;20426;-58
2021/10/04 10:00:51;;;;;;;4.40;1.10;;;15.40;99.90;;;;;;5088745;28;20747;-56
2021/10/04 10:03:19;;;;;;;4.40;1.33;;;15.30;99.90;;;;;;5089442;28;20447;-56
2021/10/04 10:05:49;;;;;;;4.60;1.50;;;15.10;99.90;;;;;;5088788;28;20382;-56
2021/10/04 10:08:19;;;;;;;3.88;1.40;;;15.10;99.90;;;;;;5089899;28;20463;-56
2021/10/04 10:10:45;;;;;;;3.80;1.20;;;15.10;99.90;;;;;;5088809;28;20402;-56
2021/10/04 10:13:14;;;;;;;4.50;1.40;;;15.20;99.90;;;;;;5088958;28;20370;-56
2021/10/04 10:15:47;;;;;;;4.93;1.90;;;15.50;99.90;;;;;;5088680;28;20457;-56
2021/10/04 10:18:24;;;;;;;4.15;1.30;;;15.50;99.90;;;;;;5089636;28;20400;-56
2021/10/04 10:21:09;;;;;;;4.35;1.65;;;15.50;99.90;;;;;;5088701;28;20446;-56
2021/10/04 10:23:48;;;;;;;4.10;1.50;;;15.60;99.90;;;;;;5087255;28;20810;-56
2021/10/04 10:26:41;;;;;;;4.40;1.40;;;15.80;99.90;;;;;;5089289;28;20412;-56
2021/10/04 10:29:21;;;;;;;4.00;1.40;;;15.80;99.90;;;;;;5089491;28;20393;-56
2021/10/04 10:31:55;;;;;;;3.90;1.20;;;16.00;99.90;;;;;;5088659;28;21376;-56
2021/10/04 10:34:30;;;;;;;4.80;1.13;;;16.00;99.90;;;;;;5089362;28;20378;-56
2021/10/04 10:37:15;;;;;;;4.00;1.23;;;16.00;99.90;;;;;;5088647;28;20902;-56
2021/10/04 10:39:47;;;;;;;4.00;1.00;;;15.90;99.90;;;;;;5088655;28;20419;-56
2021/10/04 10:42:27;;;;;;;4.10;1.10;;;15.80;99.90;;;;;;5089009;28;20402;-56
2021/10/04 10:44:56;;;;;;;3.90;1.30;;;16.10;99.90;;;;;;5088923;28;20417;-56
2021/10/04 10:47:36;;;;;;;4.80;1.50;;;16.20;99.90;;;;;;5091094;28;20386;-56
2021/10/04 10:50:12;;;;;;;6.20;1.63;;;16.30;99.90;;;;;;5093060;28;20394;-56
2021/10/04 10:53:06;;;;;;;4.30;1.43;;;16.30;99.90;;;;;;5092249;28;20386;-56
2021/10/04 10:55:35;;;;;;;3.90;1.30;;;16.10;99.90;;;;;;5091251;28;20398;-56
2021/10/04 10:58:09;;;;;;;4.65;1.35;;;16.10;99.90;;;;;;5092956;28;20413;-56
2021/10/04 11:00:36;;;;;;;5.50;1.30;;;16.30;99.90;;;;;;5092064;28;20367;-56
2021/10/04 11:03:18;;;;;;;4.10;1.08;;;16.70;99.90;;;;;;5092680;28;20463;-56
2021/10/04 11:05:56;;;;;;;3.70;1.10;;;16.80;99.90;;;;;;5091711;28;20378;-56
2021/10/04 11:08:28;;;;;;;4.03;1.20;;;16.90;99.90;;;;;;5092780;28;20386;-56
2021/10/04 11:10:53;;;;;;;3.90;1.10;;;16.70;99.90;;;;;;5091534;28;20386;-56
2021/10/04 11:13:33;;;;;;;3.73;1.00;;;16.60;99.90;;;;;;5092634;28;20397;-56
2021/10/04 11:16:06;;;;;;;5.10;1.00;;;16.50;99.90;;;;;;5099890;28;20381;-56
2021/10/04 11:18:37;;;;;;;4.20;1.00;;;16.50;99.90;;;;;;5096367;28;20877;-56
2021/10/04 11:21:06;;;;;;;3.70;0.90;;;16.30;99.90;;;;;;5092841;28;20370;-56
2021/10/04 11:23:32;;;;;;;4.20;1.10;;;16.30;99.90;;;;;;5091741;28;20417;-56
2021/10/04 11:25:58;;;;;;;3.50;0.75;;;16.50;99.90;;;;;;5084648;28;20399;-56
2021/10/04 11:28:32;;;;;;;3.50;0.70;;;16.50;99.90;;;;;;5081564;28;20858;-56
2021/10/04 11:31:05;;;;;;;4.00;1.00;;;16.50;99.90;;;;;;5072766;28;20845;-56
2021/10/04 11:33:33;;;;;;;3.70;0.90;;;16.50;99.90;;;;;;5084960;28;20903;-56
2021/10/04 11:36:05;;;;;;;3.70;1.00;;;16.70;99.90;;;;;;5090479;28;20381;-56
2021/10/04 11:39:08;;;;;;;4.80;1.10;;;17.10;99.90;;;;;;5071222;28;20424;-56
2021/10/04 11:41:41;;;;;;;3.73;0.80;;;17.30;99.90;;;;;;5064965;28;20448;-56
2021/10/04 11:44:09;;;;;;;3.83;0.85;;;17.50;99.90;;;;;;5072089;28;20780;-56
2021/10/04 11:46:38;;;;;;;3.97;0.85;;;17.50;99.90;;;;;;5071812;28;20846;-54
2021/10/04 11:49:12;;;;;;;3.80;0.70;;;17.60;99.90;;;;;;5090750;28;20378;-55
2021/10/04 11:51:45;;;;;;;4.00;0.90;;;17.70;99.90;;;;;;5090317;28;20835;-56
2021/10/04 11:54:13;;;;;;;4.72;1.17;;;17.70;99.90;;;;;;5090890;28;20382;-56
2021/10/04 11:56:40;;;;;;;4.20;1.00;;;17.80;99.90;;;;;;5088652;28;20411;-56
2021/10/04 11:59:07;;;;;;;4.10;1.00;;;17.70;99.90;;;;;;5071139;28;20431;-56
2021/10/04 12:01:39;;;;;;;3.90;0.85;;;17.60;99.90;;;;;;5069961;28;20397;-56
2021/10/04 12:04:13;;;;;;;4.28;0.90;;;17.70;99.90;;;;;;5071697;28;20411;-55
2021/10/04 12:06:44;;;;;;;3.85;1.00;;;17.80;99.90;;;;;;5071220;28;20471;-54
2021/10/04 12:09:18;;;;;;;4.13;0.90;;;17.80;99.90;;;;;;5071478;28;20866;-56
2021/10/04 12:11:58;;;;;;;3.88;1.00;;;17.70;99.90;;;;;;5072733;28;20387;-56
2021/10/04 12:14:26;;;;;;;4.60;1.00;;;17.50;99.90;;;;;;5071652;28;20525;-56
2021/10/04 12:16:59;;;;;;;4.57;1.10;;;17.30;99.90;;;;;;5070603;28;20479;-57
2021/10/04 12:19:26;;;;;;;4.60;1.33;;;17.30;99.90;;;;;;5074243;28;20513;-56
2021/10/04 12:21:51;;;;;;;4.10;1.00;;;17.20;99.90;;;;;;5080298;28;21079;-56
2021/10/04 12:24:23;;;;;;;4.50;0.90;;;17.30;99.90;;;;;;5078031;28;20511;-56
2021/10/04 12:27:13;;;;;;;3.80;0.80;;;17.30;99.90;;;;;;5074112;28;20437;-57
2021/10/04 12:29:44;;;;;;;3.90;0.90;;;17.30;99.90;;;;;;5085872;28;20394;-56
2021/10/04 12:32:28;;;;;;;3.80;0.80;;;17.40;99.90;;;;;;5090650;28;20388;-57
2021/10/04 12:35:14;;;;;;;5.00;1.15;;;17.60;99.90;;;;;;5089767;28;20378;-57
2021/10/04 12:38:00;;;;;;;3.80;0.90;;;17.70;99.90;;;;;;5070016;28;20386;-56
2021/10/04 12:40:44;;;;;;;6.40;1.08;;;17.60;99.90;;;;;;5070617;28;20410;-57
2021/10/04 12:43:14;;;;;;;4.00;0.90;;;17.50;99.90;;;;;;5070237;28;20400;-57
2021/10/04 12:45:51;;;;;;;7.18;2.13;;;17.40;99.90;;;;;;5076580;28;20396;-57
2021/10/04 12:48:17;;;;;;;74.43;10.02;;;17.50;99.90;;;;;;5084076;28;20374;-57
2021/10/04 12:50:45;;;;;;;54.45;10.10;;;17.40;99.90;;;;;;5088795;28;20377;-57